Portada
METAR-TAF:

METAR-TAF

Aeroports :

Ambon, Indonèsia

latitud: 03-42S, longitud: 128-05E, altitud: 12 m

Observació

L'informe es va fer fa 42 minuts, a les 23:00 UTC
Vent 2 kt amb direcció variable
Temperatura 26°C
Humitat 94%
Pressió 1013 hPa
Visibilitat 10 km o més
Núvols disperses a una alçada de 1700 ft

METAR: WAPP 292300Z VRB02KT 9999 SCT017 26/25 Q1013 NOSIG

Hora: 08:42 (23:42 UTC)

Pronòstic

L'informe es va fer fa 42 minuts, a les 23:00 UTC
Pronòstic vàlid del 30 a les 00 UTC al 30 a les 24 UTC
Vent 8 kt del Sud
Visibilitat 10 km o més
Núvols disperses a una alçada de 2000 ft
Temporalment
l' 30 a les 08 UTC al 30 a les 11 UTC
Visibilitat: 5000 m
pluja

TAF: WAPP 292300Z 3000/3024 18008KT 9999 SCT020 TEMPO 3008/3011 5000 RA

Observacions i pronòstics meteorològics de més de 4000 aeroports (METAR i TAF).

Les estacions disponibles són els punts grocs i vermells al mapa.

Posi el ratolí al punt desitjat per veure el nom de l'estació.

Feu clic per veure les observacions i els pronòstics meteorològics.

Per canviar el mapa: feu clic els botons verds amb una creu de color negre per apropar; al botó verd amb un guió per allunyar la imatge; o en les fletxes verdes per a mapes adjacents.


METAR-TAF: